sensor_id;sensor_type;location;lat;lon;timestamp;pressure;altitude;pressure_sealevel;temperature;humidity
55550;BME280;41397;49.972;18.944;2023-04-15T00:01:16;100508.04;;;14.95;53.46
55550;BME280;41397;49.972;18.944;2023-04-15T00:04:19;100520.95;;;14.94;53.38
55550;BME280;41397;49.972;18.944;2023-04-15T00:07:21;100514.91;;;14.91;52.97
55550;BME280;41397;49.972;18.944;2023-04-15T00:10:22;100525.21;;;14.88;52.86
55550;BME280;41397;49.972;18.944;2023-04-15T00:13:24;100525.39;;;14.87;52.99
55550;BME280;41397;49.972;18.944;2023-04-15T00:16:25;100535.15;;;14.81;54.51
55550;BME280;41397;49.972;18.944;2023-04-15T00:19:28;100536.33;;;14.79;54.34
55550;BME280;41397;49.972;18.944;2023-04-15T00:22:30;100538.38;;;14.77;54.77
55550;BME280;41397;49.972;18.944;2023-04-15T00:25:32;100535.76;;;14.75;54.64
55550;BME280;41397;49.972;18.944;2023-04-15T00:28:34;100539.70;;;14.73;54.03
55550;BME280;41397;49.972;18.944;2023-04-15T00:31:35;100543.34;;;14.73;54.51
55550;BME280;41397;49.972;18.944;2023-04-15T00:34:37;100554.49;;;14.72;54.11
55550;BME280;41397;49.972;18.944;2023-04-15T00:37:38;100542.63;;;14.71;54.04
55550;BME280;41397;49.972;18.944;2023-04-15T00:40:40;100561.89;;;14.71;54.37
55550;BME280;41397;49.972;18.944;2023-04-15T00:43:42;100552.92;;;14.69;54.39
55550;BME280;41397;49.972;18.944;2023-04-15T00:46:44;100558.58;;;14.68;54.35
55550;BME280;41397;49.972;18.944;2023-04-15T00:49:46;100558.88;;;14.64;54.30
55550;BME280;41397;49.972;18.944;2023-04-15T00:52:51;100573.68;;;14.63;55.21
55550;BME280;41397;49.972;18.944;2023-04-15T00:56:20;100569.50;;;14.59;55.68
55550;BME280;41397;49.972;18.944;2023-04-15T00:59:35;100575.50;;;14.55;56.50
55550;BME280;41397;49.972;18.944;2023-04-15T01:02:38;100583.46;;;14.48;56.46
55550;BME280;41397;49.972;18.944;2023-04-15T01:05:39;100569.02;;;14.46;56.31
55550;BME280;41397;49.972;18.944;2023-04-15T01:08:42;100569.48;;;14.41;56.04
55550;BME280;41397;49.972;18.944;2023-04-15T01:11:44;100564.84;;;14.42;56.38
55550;BME280;41397;49.972;18.944;2023-04-15T01:14:46;100576.16;;;14.39;56.85
55550;BME280;41397;49.972;18.944;2023-04-15T01:17:47;100577.02;;;14.39;57.30
55550;BME280;41397;49.972;18.944;2023-04-15T01:20:49;100582.83;;;14.36;57.12
55550;BME280;41397;49.972;18.944;2023-04-15T01:23:52;100575.03;;;14.32;57.01
55550;BME280;41397;49.972;18.944;2023-04-15T01:26:57;100568.84;;;14.30;56.77
55550;BME280;41397;49.972;18.944;2023-04-15T01:29:59;100569.30;;;14.25;56.99
55550;BME280;41397;49.972;18.944;2023-04-15T01:33:01;100581.33;;;14.24;57.31
55550;BME280;41397;49.972;18.944;2023-04-15T01:36:04;100581.07;;;14.17;57.83
55550;BME280;41397;49.972;18.944;2023-04-15T01:39:07;100585.30;;;14.12;57.97
55550;BME280;41397;49.972;18.944;2023-04-15T01:42:08;100594.71;;;14.09;57.98
55550;BME280;41397;49.972;18.944;2023-04-15T01:45:10;100595.34;;;14.03;58.16
55550;BME280;41397;49.972;18.944;2023-04-15T01:48:13;100602.14;;;13.99;58.61
55550;BME280;41397;49.972;18.944;2023-04-15T01:51:14;100597.27;;;13.93;58.51
55550;BME280;41397;49.972;18.944;2023-04-15T01:54:17;100597.70;;;13.88;58.70
55550;BME280;41397;49.972;18.944;2023-04-15T01:57:18;100596.30;;;13.84;58.79
55550;BME280;41397;49.972;18.944;2023-04-15T02:00:20;100610.48;;;13.80;58.85
55550;BME280;41397;49.972;18.944;2023-04-15T02:03:24;100610.95;;;13.75;58.94
55550;BME280;41397;49.972;18.944;2023-04-15T02:06:25;100614.87;;;13.72;59.37
55550;BME280;41397;49.972;18.944;2023-04-15T02:09:28;100625.27;;;13.69;59.42
55550;BME280;41397;49.972;18.944;2023-04-15T02:12:30;100623.00;;;13.64;59.44
55550;BME280;41397;49.972;18.944;2023-04-15T02:15:31;100626.90;;;13.62;59.54
55550;BME280;41397;49.972;18.944;2023-04-15T02:18:33;100634.26;;;13.61;59.02
55550;BME280;41397;49.972;18.944;2023-04-15T02:21:34;100636.31;;;13.59;59.05
55550;BME280;41397;49.972;18.944;2023-04-15T02:24:36;100635.73;;;13.55;59.48
55550;BME280;41397;49.972;18.944;2023-04-15T02:27:37;100636.88;;;13.53;59.37
55550;BME280;41397;49.972;18.944;2023-04-15T02:30:38;100635.16;;;13.52;58.69
55550;BME280;41397;49.972;18.944;2023-04-15T02:33:40;100639.06;;;13.49;58.28
55550;BME280;41397;49.972;18.944;2023-04-15T02:36:42;100635.59;;;13.47;58.41
55550;BME280;41397;49.972;18.944;2023-04-15T02:39:43;100642.55;;;13.42;58.30
55550;BME280;41397;49.972;18.944;2023-04-15T02:42:45;100649.93;;;13.41;58.50
55550;BME280;41397;49.972;18.944;2023-04-15T02:45:47;100658.47;;;13.38;58.41
55550;BME280;41397;49.972;18.944;2023-04-15T02:48:49;100657.05;;;13.34;58.55
55550;BME280;41397;49.972;18.944;2023-04-15T02:51:50;100651.81;;;13.31;58.49
55550;BME280;41397;49.972;18.944;2023-04-15T02:54:52;100652.12;;;13.28;58.67
55550;BME280;41397;49.972;18.944;2023-04-15T02:58:00;100660.62;;;13.25;58.77
55550;BME280;41397;49.972;18.944;2023-04-15T03:01:01;100661.77;;;13.22;59.16
55550;BME280;41397;49.972;18.944;2023-04-15T03:04:03;100656.73;;;13.18;58.90
55550;BME280;41397;49.972;18.944;2023-04-15T03:07:04;100669.45;;;13.19;58.97
55550;BME280;41397;49.972;18.944;2023-04-15T03:10:07;100659.75;;;13.15;59.04
55550;BME280;41397;49.972;18.944;2023-04-15T03:13:09;100656.44;;;13.11;58.85
55550;BME280;41397;49.972;18.944;2023-04-15T03:16:10;100662.34;;;13.06;59.30
55550;BME280;41397;49.972;18.944;2023-04-15T03:19:12;100668.01;;;13.05;58.70
55550;BME280;41397;49.972;18.944;2023-04-15T03:22:13;100673.79;;;13.02;58.31
55550;BME280;41397;49.972;18.944;2023-04-15T03:25:15;100673.06;;;13.00;58.29
55550;BME280;41397;49.972;18.944;2023-04-15T03:28:16;100685.32;;;12.96;58.43
55550;BME280;41397;49.972;18.944;2023-04-15T03:31:18;100699.94;;;12.96;58.31
55550;BME280;41397;49.972;18.944;2023-04-15T03:34:19;100705.85;;;12.92;58.52
55550;BME280;41397;49.972;18.944;2023-04-15T03:37:21;100704.98;;;12.91;58.57
55550;BME280;41397;49.972;18.944;2023-04-15T03:40:22;100702.38;;;12.89;58.79
55550;BME280;41397;49.972;18.944;2023-04-15T03:43:24;100705.98;;;12.90;59.09
55550;BME280;41397;49.972;18.944;2023-04-15T03:46:26;100696.89;;;12.89;58.71
55550;BME280;41397;49.972;18.944;2023-04-15T03:49:27;100697.91;;;12.88;58.61
55550;BME280;41397;49.972;18.944;2023-04-15T03:52:30;100716.25;;;12.88;58.58
55550;BME280;41397;49.972;18.944;2023-04-15T03:55:31;100708.02;;;12.88;58.70
55550;BME280;41397;49.972;18.944;2023-04-15T03:58:33;100707.13;;;12.87;59.12
55550;BME280;41397;49.972;18.944;2023-04-15T04:01:34;100704.55;;;12.86;58.98
55550;BME280;41397;49.972;18.944;2023-04-15T04:04:38;100708.31;;;12.85;58.83
55550;BME280;41397;49.972;18.944;2023-04-15T04:07:40;100703.81;;;12.84;59.28
55550;BME280;41397;49.972;18.944;2023-04-15T04:10:41;100692.83;;;12.84;59.58
55550;BME280;41397;49.972;18.944;2023-04-15T04:13:43;100684.75;;;12.82;59.77
55550;BME280;41397;49.972;18.944;2023-04-15T04:16:46;100695.00;;;12.80;60.08
55550;BME280;41397;49.972;18.944;2023-04-15T04:19:48;100697.87;;;12.79;60.13
55550;BME280;41397;49.972;18.944;2023-04-15T04:22:49;100699.47;;;12.81;60.05
55550;BME280;41397;49.972;18.944;2023-04-15T04:25:50;100706.84;;;12.81;59.89
55550;BME280;41397;49.972;18.944;2023-04-15T04:28:54;100715.08;;;12.81;60.22
55550;BME280;41397;49.972;18.944;2023-04-15T04:31:56;100710.17;;;12.84;60.42
55550;BME280;41397;49.972;18.944;2023-04-15T04:34:57;100725.02;;;12.82;59.95
55550;BME280;41397;49.972;18.944;2023-04-15T04:37:58;100726.78;;;12.83;59.93
55550;BME280;41397;49.972;18.944;2023-04-15T04:41:02;100733.27;;;12.82;59.76
55550;BME280;41397;49.972;18.944;2023-04-15T04:44:03;100738.63;;;12.83;59.79
55550;BME280;41397;49.972;18.944;2023-04-15T04:47:05;100731.41;;;12.82;59.84
55550;BME280;41397;49.972;18.944;2023-04-15T04:50:08;100728.09;;;12.88;59.34
55550;BME280;41397;49.972;18.944;2023-04-15T04:53:10;100736.04;;;12.92;59.47
55550;BME280;41397;49.972;18.944;2023-04-15T04:56:12;100733.58;;;12.98;59.30
55550;BME280;41397;49.972;18.944;2023-04-15T04:59:13;100740.25;;;13.05;59.51
55550;BME280;41397;49.972;18.944;2023-04-15T05:02:15;100741.70;;;13.09;59.82
55550;BME280;41397;49.972;18.944;2023-04-15T05:05:18;100746.91;;;13.13;59.82
55550;BME280;41397;49.972;18.944;2023-04-15T05:08:20;100750.09;;;13.18;59.71
55550;BME280;41397;49.972;18.944;2023-04-15T05:11:21;100757.89;;;13.22;58.83
55550;BME280;41397;49.972;18.944;2023-04-15T05:14:23;100750.80;;;13.20;58.80
55550;BME280;41397;49.972;18.944;2023-04-15T05:17:26;100756.00;;;13.23;58.34
55550;BME280;41397;49.972;18.944;2023-04-15T05:20:28;100748.23;;;13.47;59.06
55550;BME280;41397;49.972;18.944;2023-04-15T05:23:29;100740.09;;;13.85;58.57
55550;BME280;41397;49.972;18.944;2023-04-15T05:26:31;100748.20;;;14.33;56.88
55550;BME280;41397;49.972;18.944;2023-04-15T05:29:34;100746.64;;;14.86;56.14
55550;BME280;41397;49.972;18.944;2023-04-15T05:32:36;100742.68;;;15.34;54.72
55550;BME280;41397;49.972;18.944;2023-04-15T05:35:37;100743.73;;;15.69;53.49
55550;BME280;41397;49.972;18.944;2023-04-15T05:38:39;100742.84;;;16.12;52.28
55550;BME280;41397;49.972;18.944;2023-04-15T05:41:42;100750.43;;;16.53;51.15
55550;BME280;41397;49.972;18.944;2023-04-15T05:44:43;100756.04;;;17.03;50.37
55550;BME280;41397;49.972;18.944;2023-04-15T05:47:45;100753.36;;;17.52;49.08
55550;BME280;41397;49.972;18.944;2023-04-15T05:50:47;100754.94;;;17.96;47.75
55550;BME280;41397;49.972;18.944;2023-04-15T05:53:50;100754.56;;;18.07;47.36
55550;BME280;41397;49.972;18.944;2023-04-15T05:56:51;100770.66;;;18.04;46.51
55550;BME280;41397;49.972;18.944;2023-04-15T05:59:53;100766.16;;;17.94;46.33
55550;BME280;41397;49.972;18.944;2023-04-15T06:02:57;100773.09;;;17.90;46.38
55550;BME280;41397;49.972;18.944;2023-04-15T06:05:58;100770.83;;;18.02;46.76
55550;BME280;41397;49.972;18.944;2023-04-15T06:09:01;100773.75;;;18.25;46.12
55550;BME280;41397;49.972;18.944;2023-04-15T06:12:02;100781.28;;;18.56;46.56
55550;BME280;41397;49.972;18.944;2023-04-15T06:15:04;100783.90;;;18.41;44.65
55550;BME280;41397;49.972;18.944;2023-04-15T06:18:06;100784.77;;;18.50;43.95
55550;BME280;41397;49.972;18.944;2023-04-15T06:21:08;100784.16;;;18.79;44.40
55550;BME280;41397;49.972;18.944;2023-04-15T06:24:11;100784.45;;;18.92;43.21
55550;BME280;41397;49.972;18.944;2023-04-15T06:27:12;100779.55;;;19.02;43.23
55550;BME280;41397;49.972;18.944;2023-04-15T06:30:14;100786.34;;;19.00;43.96
55550;BME280;41397;49.972;18.944;2023-04-15T06:33:15;100787.67;;;19.04;42.92
55550;BME280;41397;49.972;18.944;2023-04-15T06:36:17;100792.16;;;19.13;43.25
55550;BME280;41397;49.972;18.944;2023-04-15T06:39:19;100797.22;;;19.01;42.09
55550;BME280;41397;49.972;18.944;2023-04-15T06:42:21;100799.45;;;18.58;42.11
55550;BME280;41397;49.972;18.944;2023-04-15T06:45:23;100796.30;;;18.78;42.97
55550;BME280;41397;49.972;18.944;2023-04-15T06:48:24;100798.65;;;18.97;42.90
55550;BME280;41397;49.972;18.944;2023-04-15T06:51:26;100783.02;;;19.04;42.85
55550;BME280;41397;49.972;18.944;2023-04-15T06:54:29;100789.50;;;19.20;43.59
55550;BME280;41397;49.972;18.944;2023-04-15T06:57:31;100794.14;;;19.27;43.51
55550;BME280;41397;49.972;18.944;2023-04-15T07:00:32;100798.36;;;19.46;42.89
55550;BME280;41397;49.972;18.944;2023-04-15T07:03:34;100791.44;;;19.73;42.47
55550;BME280;41397;49.972;18.944;2023-04-15T07:06:37;100792.70;;;19.86;41.44
55550;BME280;41397;49.972;18.944;2023-04-15T07:09:39;100794.77;;;19.92;41.22
55550;BME280;41397;49.972;18.944;2023-04-15T07:12:40;100801.48;;;19.98;40.43
55550;BME280;41397;49.972;18.944;2023-04-15T07:15:42;100800.55;;;20.05;40.09
55550;BME280;41397;49.972;18.944;2023-04-15T07:18:45;100807.61;;;20.08;39.89
55550;BME280;41397;49.972;18.944;2023-04-15T07:21:46;100802.74;;;20.10;39.90
55550;BME280;41397;49.972;18.944;2023-04-15T07:24:48;100814.63;;;20.18;39.71
55550;BME280;41397;49.972;18.944;2023-04-15T07:27:49;100811.85;;;20.18;39.82
55550;BME280;41397;49.972;18.944;2023-04-15T07:30:53;100803.27;;;20.28;38.71
55550;BME280;41397;49.972;18.944;2023-04-15T07:37:32;100797.88;;;20.27;38.54
55550;BME280;41397;49.972;18.944;2023-04-15T07:40:51;100799.55;;;20.36;37.78
55550;BME280;41397;49.972;18.944;2023-04-15T07:44:03;100804.42;;;20.34;35.93
55550;BME280;41397;49.972;18.944;2023-04-15T07:47:05;100804.26;;;20.35;37.14
55550;BME280;41397;49.972;18.944;2023-04-15T07:50:08;100796.19;;;20.40;36.88
55550;BME280;41397;49.972;18.944;2023-04-15T07:53:11;100803.20;;;20.51;36.49
55550;BME280;41397;49.972;18.944;2023-04-15T07:59:47;100793.71;;;20.46;36.43
55550;BME280;41397;49.972;18.944;2023-04-15T08:02:51;100793.61;;;20.39;36.66
55550;BME280;41397;49.972;18.944;2023-04-15T08:27:04;100801.72;;;19.88;38.24
55550;BME280;41397;49.972;18.944;2023-04-15T08:30:07;100799.35;;;20.00;37.81
55550;BME280;41397;49.972;18.944;2023-04-15T08:33:08;100802.13;;;20.00;36.73
55550;BME280;41397;49.972;18.944;2023-04-15T08:36:10;100804.66;;;20.09;36.81
55550;BME280;41397;49.972;18.944;2023-04-15T08:39:27;100806.38;;;20.10;36.56
55550;BME280;41397;49.972;18.944;2023-04-15T08:42:47;100804.28;;;20.12;36.55
55550;BME280;41397;49.972;18.944;2023-04-15T08:45:49;100813.77;;;20.18;38.16
55550;BME280;41397;49.972;18.944;2023-04-15T08:48:57;100804.42;;;20.34;36.64
55550;BME280;41397;49.972;18.944;2023-04-15T08:51:58;100806.82;;;20.37;36.77
55550;BME280;41397;49.972;18.944;2023-04-15T08:55:01;100813.32;;;20.29;36.89
55550;BME280;41397;49.972;18.944;2023-04-15T08:58:05;100809.45;;;20.15;36.91
55550;BME280;41397;49.972;18.944;2023-04-15T09:01:06;100809.59;;;19.99;37.15
55550;BME280;41397;49.972;18.944;2023-04-15T09:04:09;100824.59;;;19.67;37.67
55550;BME280;41397;49.972;18.944;2023-04-15T09:07:12;100808.77;;;19.76;37.79
55550;BME280;41397;49.972;18.944;2023-04-15T09:10:13;100815.59;;;19.65;37.36
55550;BME280;41397;49.972;18.944;2023-04-15T09:13:15;100806.00;;;19.76;38.69
55550;BME280;41397;49.972;18.944;2023-04-15T09:16:16;100802.79;;;19.87;38.49
55550;BME280;41397;49.972;18.944;2023-04-15T09:19:23;100810.12;;;19.80;37.99
55550;BME280;41397;49.972;18.944;2023-04-15T09:22:32;100803.08;;;19.69;38.38
55550;BME280;41397;49.972;18.944;2023-04-15T09:25:33;100814.55;;;19.66;38.25
55550;BME280;41397;49.972;18.944;2023-04-15T09:28:41;100814.41;;;19.59;37.93
55550;BME280;41397;49.972;18.944;2023-04-15T09:31:43;100807.80;;;19.60;38.58
55550;BME280;41397;49.972;18.944;2023-04-15T09:34:45;100798.85;;;19.50;38.48
55550;BME280;41397;49.972;18.944;2023-04-15T09:37:48;100804.54;;;19.57;38.58
55550;BME280;41397;49.972;18.944;2023-04-15T09:40:50;100804.23;;;19.51;38.44
55550;BME280;41397;49.972;18.944;2023-04-15T09:43:52;100802.67;;;19.49;38.16
55550;BME280;41397;49.972;18.944;2023-04-15T09:46:53;100812.41;;;19.45;38.66
55550;BME280;41397;49.972;18.944;2023-04-15T09:49:56;100816.48;;;19.26;39.53
55550;BME280;41397;49.972;18.944;2023-04-15T09:52:57;100824.83;;;18.87;39.76
55550;BME280;41397;49.972;18.944;2023-04-15T09:55:59;100831.09;;;18.72;39.68
55550;BME280;41397;49.972;18.944;2023-04-15T09:59:02;100818.27;;;18.79;40.11
55550;BME280;41397;49.972;18.944;2023-04-15T10:02:04;100814.27;;;18.82;40.55
55550;BME280;41397;49.972;18.944;2023-04-15T10:05:09;100816.73;;;18.60;40.19
55550;BME280;41397;49.972;18.944;2023-04-15T10:08:12;100813.66;;;18.55;40.87
55550;BME280;41397;49.972;18.944;2023-04-15T10:11:13;100810.14;;;18.70;40.09
55550;BME280;41397;49.972;18.944;2023-04-15T10:14:16;100823.13;;;18.69;40.13
55550;BME280;41397;49.972;18.944;2023-04-15T10:17:21;100821.92;;;18.72;40.20
55550;BME280;41397;49.972;18.944;2023-04-15T10:20:23;100815.66;;;18.86;41.30
55550;BME280;41397;49.972;18.944;2023-04-15T10:23:29;100811.40;;;19.06;39.91
55550;BME280;41397;49.972;18.944;2023-04-15T10:26:31;100809.11;;;19.18;40.02
55550;BME280;41397;49.972;18.944;2023-04-15T10:29:36;100806.13;;;19.20;39.53
55550;BME280;41397;49.972;18.944;2023-04-15T10:32:38;100808.86;;;18.97;39.36
55550;BME280;41397;49.972;18.944;2023-04-15T10:35:41;100807.77;;;19.06;39.77
55550;BME280;41397;49.972;18.944;2023-04-15T10:38:44;100803.98;;;19.07;39.74
55550;BME280;41397;49.972;18.944;2023-04-15T10:44:59;100811.63;;;18.97;39.79
55550;BME280;41397;49.972;18.944;2023-04-15T10:48:06;100808.16;;;18.95;39.77
55550;BME280;41397;49.972;18.944;2023-04-15T10:51:09;100810.74;;;19.04;39.05
55550;BME280;41397;49.972;18.944;2023-04-15T10:57:22;100801.86;;;19.09;39.24
55550;BME280;41397;49.972;18.944;2023-04-15T11:00:24;100793.59;;;19.01;38.61
55550;BME280;41397;49.972;18.944;2023-04-15T11:03:36;100809.23;;;18.94;38.55
55550;BME280;41397;49.972;18.944;2023-04-15T11:06:44;100807.30;;;18.94;38.40
55550;BME280;41397;49.972;18.944;2023-04-15T11:09:46;100806.13;;;18.89;38.80
55550;BME280;41397;49.972;18.944;2023-04-15T11:12:51;100808.73;;;18.82;38.38
55550;BME280;41397;49.972;18.944;2023-04-15T11:15:55;100804.24;;;18.73;39.20
55550;BME280;41397;49.972;18.944;2023-04-15T11:18:58;100814.63;;;18.71;37.84
55550;BME280;41397;49.972;18.944;2023-04-15T11:22:08;100813.62;;;18.80;37.15
55550;BME280;41397;49.972;18.944;2023-04-15T11:25:09;100825.36;;;18.82;37.10
55550;BME280;41397;49.972;18.944;2023-04-15T11:28:11;100817.76;;;18.76;37.63
55550;BME280;41397;49.972;18.944;2023-04-15T11:31:17;100807.77;;;19.06;37.32
55550;BME280;41397;49.972;18.944;2023-04-15T11:34:22;100809.92;;;19.27;37.82
55550;BME280;41397;49.972;18.944;2023-04-15T11:37:28;100816.92;;;19.46;35.83
55550;BME280;41397;49.972;18.944;2023-04-15T11:40:31;100819.95;;;19.59;35.60
55550;BME280;41397;49.972;18.944;2023-04-15T11:43:35;100815.73;;;19.71;35.54
55550;BME280;41397;49.972;18.944;2023-04-15T11:46:37;100814.56;;;19.89;35.83
55550;BME280;41397;49.972;18.944;2023-04-15T11:49:38;100815.73;;;19.94;36.14
55550;BME280;41397;49.972;18.944;2023-04-15T11:55:54;100813.13;;;19.93;35.33
55550;BME280;41397;49.972;18.944;2023-04-15T11:58:56;100808.22;;;20.18;35.79
55550;BME280;41397;49.972;18.944;2023-04-15T12:02:10;100811.77;;;20.27;34.92
55550;BME280;41397;49.972;18.944;2023-04-15T12:05:12;100811.52;;;20.36;35.96
55550;BME280;41397;49.972;18.944;2023-04-15T12:08:14;100811.22;;;20.31;34.94
55550;BME280;41397;49.972;18.944;2023-04-15T12:11:19;100808.18;;;20.41;35.33
55550;BME280;41397;49.972;18.944;2023-04-15T12:14:24;100809.12;;;20.33;34.34
55550;BME280;41397;49.972;18.944;2023-04-15T12:17:27;100808.10;;;20.49;35.12
55550;BME280;41397;49.972;18.944;2023-04-15T12:23:54;100806.03;;;20.66;35.97
55550;BME280;41397;49.972;18.944;2023-04-15T12:26:58;100808.80;;;20.66;35.20
55550;BME280;41397;49.972;18.944;2023-04-15T12:30:04;100803.33;;;20.73;35.08
55550;BME280;41397;49.972;18.944;2023-04-15T12:33:06;100814.92;;;20.61;33.82
55550;BME280;41397;49.972;18.944;2023-04-15T12:36:07;100798.01;;;20.48;34.39
55550;BME280;41397;49.972;18.944;2023-04-15T12:39:09;100813.27;;;20.52;34.50
55550;BME280;41397;49.972;18.944;2023-04-15T12:42:11;100806.68;;;20.53;34.49
55550;BME280;41397;49.972;18.944;2023-04-15T12:45:13;100805.65;;;20.54;34.67
55550;BME280;41397;49.972;18.944;2023-04-15T12:48:14;100798.87;;;20.49;33.67
55550;BME280;41397;49.972;18.944;2023-04-15T12:51:16;100797.93;;;20.42;34.02
55550;BME280;41397;49.972;18.944;2023-04-15T12:54:18;100802.80;;;20.39;34.07
55550;BME280;41397;49.972;18.944;2023-04-15T12:57:19;100807.97;;;20.28;33.95
55550;BME280;41397;49.972;18.944;2023-04-15T13:00:21;100812.13;;;20.09;33.69
55550;BME280;41397;49.972;18.944;2023-04-15T13:06:56;100815.42;;;19.89;34.52
55550;BME280;41397;49.972;18.944;2023-04-15T13:09:58;100826.59;;;19.81;33.45
55550;BME280;41397;49.972;18.944;2023-04-15T13:12:59;100819.60;;;19.85;34.12
55550;BME280;41397;49.972;18.944;2023-04-15T13:16:01;100821.45;;;19.93;33.76
55550;BME280;41397;49.972;18.944;2023-04-15T13:19:03;100828.86;;;20.01;34.10
55550;BME280;41397;49.972;18.944;2023-04-15T13:22:05;100832.32;;;20.03;34.10
55550;BME280;41397;49.972;18.944;2023-04-15T13:25:08;100836.98;;;20.02;33.94
55550;BME280;41397;49.972;18.944;2023-04-15T13:28:10;100835.51;;;19.91;33.80
55550;BME280;41397;49.972;18.944;2023-04-15T13:31:12;100839.35;;;19.90;33.31
55550;BME280;41397;49.972;18.944;2023-04-15T13:34:13;100845.33;;;19.79;34.17
55550;BME280;41397;49.972;18.944;2023-04-15T13:37:15;100837.75;;;19.73;34.11
55550;BME280;41397;49.972;18.944;2023-04-15T13:40:18;100852.35;;;19.59;35.90
55550;BME280;41397;49.972;18.944;2023-04-15T13:43:20;100849.52;;;19.44;35.61
55550;BME280;41397;49.972;18.944;2023-04-15T13:46:21;100858.61;;;19.29;36.22
55550;BME280;41397;49.972;18.944;2023-04-15T13:49:23;100852.05;;;19.22;35.83
55550;BME280;41397;49.972;18.944;2023-04-15T13:52:24;100853.63;;;19.17;36.93
55550;BME280;41397;49.972;18.944;2023-04-15T13:55:26;100858.85;;;19.12;37.66
55550;BME280;41397;49.972;18.944;2023-04-15T13:58:28;100860.07;;;19.09;37.62
55550;BME280;41397;49.972;18.944;2023-04-15T14:01:29;100870.55;;;18.91;39.11
55550;BME280;41397;49.972;18.944;2023-04-15T14:04:31;100860.17;;;18.76;39.25
55550;BME280;41397;49.972;18.944;2023-04-15T14:07:32;100868.82;;;18.81;39.69
55550;BME280;41397;49.972;18.944;2023-04-15T14:10:34;100871.78;;;18.88;39.44
55550;BME280;41397;49.972;18.944;2023-04-15T14:13:36;100878.30;;;18.95;38.93
55550;BME280;41397;49.972;18.944;2023-04-15T14:16:37;100880.55;;;19.00;39.16
55550;BME280;41397;49.972;18.944;2023-04-15T14:19:39;100888.54;;;18.95;40.57
55550;BME280;41397;49.972;18.944;2023-04-15T14:22:40;100881.44;;;18.92;41.23
55550;BME280;41397;49.972;18.944;2023-04-15T14:25:43;100885.27;;;18.91;42.09
55550;BME280;41397;49.972;18.944;2023-04-15T14:28:44;100888.91;;;18.83;42.68
55550;BME280;41397;49.972;18.944;2023-04-15T14:31:47;100899.66;;;18.78;42.79
55550;BME280;41397;49.972;18.944;2023-04-15T14:34:50;100899.15;;;18.67;42.56
55550;BME280;41397;49.972;18.944;2023-04-15T14:37:54;100917.15;;;18.54;42.99
55550;BME280;41397;49.972;18.944;2023-04-15T14:40:55;100919.06;;;18.46;43.26
55550;BME280;41397;49.972;18.944;2023-04-15T14:43:57;100922.20;;;18.34;43.83
55550;BME280;41397;49.972;18.944;2023-04-15T14:47:00;100920.27;;;18.27;44.94
55550;BME280;41397;49.972;18.944;2023-04-15T14:50:05;100927.21;;;18.23;45.13
55550;BME280;41397;49.972;18.944;2023-04-15T14:53:06;100936.54;;;18.22;45.31
55550;BME280;41397;49.972;18.944;2023-04-15T14:56:08;100932.91;;;18.21;45.70
55550;BME280;41397;49.972;18.944;2023-04-15T14:59:09;100932.39;;;18.17;45.86
55550;BME280;41397;49.972;18.944;2023-04-15T15:02:12;100934.10;;;18.10;45.91
55550;BME280;41397;49.972;18.944;2023-04-15T15:05:14;100938.07;;;18.08;46.40
55550;BME280;41397;49.972;18.944;2023-04-15T15:08:16;100942.91;;;18.06;46.76
55550;BME280;41397;49.972;18.944;2023-04-15T15:11:17;100939.99;;;18.07;46.77
55550;BME280;41397;49.972;18.944;2023-04-15T15:14:18;100941.34;;;18.03;46.60
55550;BME280;41397;49.972;18.944;2023-04-15T15:17:20;100942.59;;;18.01;46.34
55550;BME280;41397;49.972;18.944;2023-04-15T15:20:22;100940.31;;;17.96;46.34
55550;BME280;41397;49.972;18.944;2023-04-15T15:23:24;100940.66;;;17.93;46.32
55550;BME280;41397;49.972;18.944;2023-04-15T15:26:26;100946.34;;;17.91;46.37
55550;BME280;41397;49.972;18.944;2023-04-15T15:29:28;100944.09;;;17.87;47.00
55550;BME280;41397;49.972;18.944;2023-04-15T15:32:30;100953.43;;;17.86;46.93
55550;BME280;41397;49.972;18.944;2023-04-15T15:35:31;100946.33;;;17.83;46.75
55550;BME280;41397;49.972;18.944;2023-04-15T15:38:33;100951.47;;;17.78;46.87
55550;BME280;41397;49.972;18.944;2023-04-15T15:41:34;100959.09;;;17.76;47.26
55550;BME280;41397;49.972;18.944;2023-04-15T15:44:36;100969.45;;;17.74;47.26
55550;BME280;41397;49.972;18.944;2023-04-15T15:47:39;100981.50;;;17.65;48.26
55550;BME280;41397;49.972;18.944;2023-04-15T15:50:42;101008.44;;;17.55;49.79
55550;BME280;41397;49.972;18.944;2023-04-15T15:53:57;101028.24;;;17.42;50.52
55550;BME280;41397;49.972;18.944;2023-04-15T15:57:13;101025.57;;;17.32;50.28
55550;BME280;41397;49.972;18.944;2023-04-15T16:00:34;101030.33;;;17.14;51.02
55550;BME280;41397;49.972;18.944;2023-04-15T16:03:39;101038.83;;;16.94;51.50
55550;BME280;41397;49.972;18.944;2023-04-15T16:06:41;101036.05;;;16.76;52.53
55550;BME280;41397;49.972;18.944;2023-04-15T16:09:47;101028.88;;;16.48;53.52
55550;BME280;41397;49.972;18.944;2023-04-15T16:12:49;101031.41;;;16.41;54.82
55550;BME280;41397;49.972;18.944;2023-04-15T16:15:51;101022.11;;;16.24;55.79
55550;BME280;41397;49.972;18.944;2023-04-15T16:18:52;101017.14;;;16.10;56.26
55550;BME280;41397;49.972;18.944;2023-04-15T16:21:56;101014.02;;;15.95;57.04
55550;BME280;41397;49.972;18.944;2023-04-15T16:24:58;101014.25;;;15.84;57.03
55550;BME280;41397;49.972;18.944;2023-04-15T16:28:00;101002.75;;;15.61;58.39